sensor_id;sensor_type;location;lat;lon;timestamp;P1;durP1;ratioP1;P2;durP2;ratioP2
61675;SDS011;47574;52.090;5.244;2023-06-26T00:00:37;7.6;;;6.2;;
61675;SDS011;47574;52.090;5.244;2023-06-26T00:03:50;7.3;;;6.6;;
61675;SDS011;47574;52.090;5.244;2023-06-26T00:05:26;7.3;;;6.6;;
61675;SDS011;47574;52.090;5.244;2023-06-26T00:07:02;6.9;;;6.2;;
61675;SDS011;47574;52.090;5.244;2023-06-26T00:10:17;7.0;;;6.4;;
61675;SDS011;47574;52.090;5.244;2023-06-26T00:11:53;7.2;;;6.5;;
61675;SDS011;47574;52.090;5.244;2023-06-26T00:13:29;7.0;;;6.5;;
61675;SDS011;47574;52.090;5.244;2023-06-26T00:15:06;7.8;;;7.1;;
61675;SDS011;47574;52.090;5.244;2023-06-26T00:18:18;7.3;;;6.7;;
61675;SDS011;47574;52.090;5.244;2023-06-26T00:19:55;7.4;;;6.8;;
61675;SDS011;47574;52.090;5.244;2023-06-26T00:21:32;6.9;;;6.3;;
61675;SDS011;47574;52.090;5.244;2023-06-26T00:24:47;8.9;;;7.0;;
61675;SDS011;47574;52.090;5.244;2023-06-26T00:26:25;7.7;;;6.5;;
61675;SDS011;47574;52.090;5.244;2023-06-26T00:28:02;7.3;;;6.7;;
61675;SDS011;47574;52.090;5.244;2023-06-26T00:31:14;7.4;;;6.5;;
61675;SDS011;47574;52.090;5.244;2023-06-26T00:32:50;8.31;;;7.1;;
61675;SDS011;47574;52.090;5.244;2023-06-26T00:34:27;9.81;;;6.7;;
61675;SDS011;47574;52.090;5.244;2023-06-26T00:36:03;8.0;;;7.2;;
61675;SDS011;47574;52.090;5.244;2023-06-26T00:39:16;8.1;;;6.7;;
61675;SDS011;47574;52.090;5.244;2023-06-26T00:40:52;7.6;;;6.9;;
61675;SDS011;47574;52.090;5.244;2023-06-26T00:42:29;8.6;;;6.8;;
61675;SDS011;47574;52.090;5.244;2023-06-26T00:45:42;8.2;;;6.6;;
61675;SDS011;47574;52.090;5.244;2023-06-26T00:47:18;7.7;;;7.0;;
61675;SDS011;47574;52.090;5.244;2023-06-26T00:48:54;8.0;;;7.3;;
61675;SDS011;47574;52.090;5.244;2023-06-26T00:50:35;8.1;;;7.3;;
61675;SDS011;47574;52.090;5.244;2023-06-26T00:53:48;7.6;;;6.9;;
61675;SDS011;47574;52.090;5.244;2023-06-26T00:55:25;8.5;;;7.6;;
61675;SDS011;47574;52.090;5.244;2023-06-26T00:57:02;7.7;;;6.9;;
61675;SDS011;47574;52.090;5.244;2023-06-26T01:00:17;8.0;;;6.9;;
61675;SDS011;47574;52.090;5.244;2023-06-26T01:01:54;7.8;;;7.0;;
61675;SDS011;47574;52.090;5.244;2023-06-26T01:03:30;9.0;;;7.0;;
61675;SDS011;47574;52.090;5.244;2023-06-26T01:06:44;7.4;;;6.7;;
61675;SDS011;47574;52.090;5.244;2023-06-26T01:08:22;7.8;;;7.1;;
61675;SDS011;47574;52.090;5.244;2023-06-26T01:10:00;8.4;;;6.8;;
61675;SDS011;47574;52.090;5.244;2023-06-26T01:11:37;8.6;;;7.0;;
61675;SDS011;47574;52.090;5.244;2023-06-26T01:14:51;8.1;;;6.6;;
61675;SDS011;47574;52.090;5.244;2023-06-26T01:16:28;7.7;;;6.8;;
61675;SDS011;47574;52.090;5.244;2023-06-26T01:18:06;7.7;;;6.4;;
61675;SDS011;47574;52.090;5.244;2023-06-26T01:21:20;8.31;;;7.0;;
61675;SDS011;47574;52.090;5.244;2023-06-26T01:22:57;6.7;;;6.1;;
61675;SDS011;47574;52.090;5.244;2023-06-26T01:24:45;6.8;;;6.1;;
61675;SDS011;47574;52.090;5.244;2023-06-26T01:26:36;7.8;;;5.9;;
61675;SDS011;47574;52.090;5.244;2023-06-26T01:28:15;6.8;;;5.6;;
61675;SDS011;47574;52.090;5.244;2023-06-26T01:31:32;6.5;;;5.6;;
61675;SDS011;47574;52.090;5.244;2023-06-26T01:33:10;6.5;;;5.9;;
61675;SDS011;47574;52.090;5.244;2023-06-26T01:34:48;6.9;;;5.5;;
61675;SDS011;47574;52.090;5.244;2023-06-26T01:38:12;6.3;;;5.3;;
61675;SDS011;47574;52.090;5.244;2023-06-26T01:39:52;5.7;;;5.11;;
61675;SDS011;47574;52.090;5.244;2023-06-26T01:41:28;10.3;;;5.8;;
61675;SDS011;47574;52.090;5.244;2023-06-26T01:43:05;6.0;;;5.0;;
61675;SDS011;47574;52.090;5.244;2023-06-26T01:46:33;6.8;;;4.8;;
61675;SDS011;47574;52.090;5.244;2023-06-26T01:48:20;6.3;;;4.91;;
61675;SDS011;47574;52.090;5.244;2023-06-26T01:50:05;6.5;;;5.0;;
61675;SDS011;47574;52.090;5.244;2023-06-26T01:51:45;6.6;;;4.91;;
61675;SDS011;47574;52.090;5.244;2023-06-26T01:53:32;7.5;;;4.91;;
61675;SDS011;47574;52.090;5.244;2023-06-26T01:57:03;6.6;;;4.7;;
61675;SDS011;47574;52.090;5.244;2023-06-26T01:58:43;7.8;;;4.91;;
61675;SDS011;47574;52.090;5.244;2023-06-26T02:00:22;8.4;;;4.91;;
61675;SDS011;47574;52.090;5.244;2023-06-26T02:02:00;7.4;;;4.8;;
61675;SDS011;47574;52.090;5.244;2023-06-26T02:05:13;7.6;;;4.5;;
61675;SDS011;47574;52.090;5.244;2023-06-26T02:06:50;9.0;;;4.91;;
61675;SDS011;47574;52.090;5.244;2023-06-26T02:08:27;8.5;;;4.61;;
61675;SDS011;47574;52.090;5.244;2023-06-26T02:11:42;7.8;;;4.91;;
61675;SDS011;47574;52.090;5.244;2023-06-26T02:13:18;11.7;;;4.61;;
61675;SDS011;47574;52.090;5.244;2023-06-26T02:14:55;9.4;;;4.41;;
61675;SDS011;47574;52.090;5.244;2023-06-26T02:16:31;8.0;;;4.2;;
61675;SDS011;47574;52.090;5.244;2023-06-26T02:19:43;8.81;;;4.61;;
61675;SDS011;47574;52.090;5.244;2023-06-26T02:21:20;9.5;;;4.41;;
61675;SDS011;47574;52.090;5.244;2023-06-26T02:22:56;10.8;;;4.7;;
61675;SDS011;47574;52.090;5.244;2023-06-26T02:26:08;8.31;;;4.41;;
61675;SDS011;47574;52.090;5.244;2023-06-26T02:27:44;10.9;;;4.41;;
61675;SDS011;47574;52.090;5.244;2023-06-26T02:29:21;7.5;;;4.7;;
61675;SDS011;47574;52.090;5.244;2023-06-26T02:32:33;8.4;;;4.1;;
61675;SDS011;47574;52.090;5.244;2023-06-26T02:34:09;9.9;;;4.7;;
61675;SDS011;47574;52.090;5.244;2023-06-26T02:35:45;11.0;;;4.5;;
61675;SDS011;47574;52.090;5.244;2023-06-26T02:37:22;10.5;;;4.2;;
61675;SDS011;47574;52.090;5.244;2023-06-26T02:40:35;10.1;;;4.41;;
61675;SDS011;47574;52.090;5.244;2023-06-26T02:42:11;9.21;;;4.5;;
61675;SDS011;47574;52.090;5.244;2023-06-26T02:43:48;15.3;;;4.41;;
61675;SDS011;47574;52.090;5.244;2023-06-26T02:47:01;15.3;;;4.41;;
61675;SDS011;47574;52.090;5.244;2023-06-26T02:48:37;8.81;;;4.7;;
61675;SDS011;47574;52.090;5.244;2023-06-26T02:50:14;12.8;;;4.7;;
61675;SDS011;47574;52.090;5.244;2023-06-26T02:53:27;11.1;;;5.0;;
61675;SDS011;47574;52.090;5.244;2023-06-26T02:55:04;12.2;;;5.2;;
61675;SDS011;47574;52.090;5.244;2023-06-26T02:56:40;12.0;;;4.61;;
61675;SDS011;47574;52.090;5.244;2023-06-26T02:58:18;12.6;;;5.11;;
61675;SDS011;47574;52.090;5.244;2023-06-26T03:01:31;10.0;;;4.41;;
61675;SDS011;47574;52.090;5.244;2023-06-26T03:03:08;13.3;;;4.91;;
61675;SDS011;47574;52.090;5.244;2023-06-26T03:04:45;11.6;;;4.7;;
61675;SDS011;47574;52.090;5.244;2023-06-26T03:07:58;10.21;;;4.7;;
61675;SDS011;47574;52.090;5.244;2023-06-26T03:09:34;12.4;;;5.3;;
61675;SDS011;47574;52.090;5.244;2023-06-26T03:11:11;11.7;;;4.8;;
61675;SDS011;47574;52.090;5.244;2023-06-26T03:14:25;11.5;;;5.3;;
61675;SDS011;47574;52.090;5.244;2023-06-26T03:16:02;11.3;;;4.61;;
61675;SDS011;47574;52.090;5.244;2023-06-26T03:17:40;12.2;;;5.11;;
61675;SDS011;47574;52.090;5.244;2023-06-26T03:19:16;16.7;;;5.0;;
61675;SDS011;47574;52.090;5.244;2023-06-26T03:22:32;11.9;;;4.8;;
61675;SDS011;47574;52.090;5.244;2023-06-26T03:24:09;11.6;;;5.0;;
61675;SDS011;47574;52.090;5.244;2023-06-26T03:25:45;13.4;;;5.3;;
61675;SDS011;47574;52.090;5.244;2023-06-26T03:28:59;11.0;;;4.91;;
61675;SDS011;47574;52.090;5.244;2023-06-26T03:30:37;11.6;;;4.8;;
61675;SDS011;47574;52.090;5.244;2023-06-26T03:32:14;12.8;;;4.91;;
61675;SDS011;47574;52.090;5.244;2023-06-26T03:33:51;14.0;;;5.4;;
61675;SDS011;47574;52.090;5.244;2023-06-26T03:37:05;13.5;;;5.2;;
61675;SDS011;47574;52.090;5.244;2023-06-26T03:38:41;11.7;;;5.0;;
61675;SDS011;47574;52.090;5.244;2023-06-26T03:40:18;13.0;;;5.4;;
61675;SDS011;47574;52.090;5.244;2023-06-26T03:43:32;13.6;;;5.11;;
61675;SDS011;47574;52.090;5.244;2023-06-26T03:45:08;9.4;;;4.91;;
61675;SDS011;47574;52.090;5.244;2023-06-26T03:46:44;11.6;;;5.2;;
61675;SDS011;47574;52.090;5.244;2023-06-26T03:49:57;12.0;;;5.5;;
61675;SDS011;47574;52.090;5.244;2023-06-26T03:51:35;11.7;;;5.2;;
61675;SDS011;47574;52.090;5.244;2023-06-26T03:53:11;13.4;;;5.2;;
61675;SDS011;47574;52.090;5.244;2023-06-26T03:54:48;12.2;;;5.11;;
61675;SDS011;47574;52.090;5.244;2023-06-26T03:58:02;11.7;;;5.0;;
61675;SDS011;47574;52.090;5.244;2023-06-26T03:59:39;13.6;;;5.11;;
61675;SDS011;47574;52.090;5.244;2023-06-26T04:01:16;12.1;;;4.61;;
61675;SDS011;47574;52.090;5.244;2023-06-26T04:04:30;12.6;;;5.2;;
61675;SDS011;47574;52.090;5.244;2023-06-26T04:06:06;16.7;;;5.11;;
61675;SDS011;47574;52.090;5.244;2023-06-26T04:07:42;10.4;;;4.61;;
61675;SDS011;47574;52.090;5.244;2023-06-26T04:10:55;15.0;;;5.2;;
61675;SDS011;47574;52.090;5.244;2023-06-26T04:12:32;12.6;;;4.7;;
61675;SDS011;47574;52.090;5.244;2023-06-26T04:14:09;11.7;;;5.11;;
61675;SDS011;47574;52.090;5.244;2023-06-26T04:15:46;12.1;;;4.91;;
61675;SDS011;47574;52.090;5.244;2023-06-26T04:19:00;13.1;;;5.0;;
61675;SDS011;47574;52.090;5.244;2023-06-26T04:20:38;12.5;;;4.8;;
61675;SDS011;47574;52.090;5.244;2023-06-26T04:22:15;12.3;;;4.8;;
61675;SDS011;47574;52.090;5.244;2023-06-26T04:25:29;14.1;;;5.11;;
61675;SDS011;47574;52.090;5.244;2023-06-26T04:27:05;13.0;;;4.8;;
61675;SDS011;47574;52.090;5.244;2023-06-26T04:28:42;13.0;;;4.7;;
61675;SDS011;47574;52.090;5.244;2023-06-26T04:30:19;13.1;;;5.3;;
61675;SDS011;47574;52.090;5.244;2023-06-26T04:33:33;16.3;;;4.91;;
61675;SDS011;47574;52.090;5.244;2023-06-26T04:35:10;11.3;;;5.11;;
61675;SDS011;47574;52.090;5.244;2023-06-26T04:36:46;13.3;;;4.5;;
61675;SDS011;47574;52.090;5.244;2023-06-26T04:40:00;12.6;;;5.3;;
61675;SDS011;47574;52.090;5.244;2023-06-26T04:41:37;12.6;;;4.61;;
61675;SDS011;47574;52.090;5.244;2023-06-26T04:43:14;13.8;;;4.61;;
61675;SDS011;47574;52.090;5.244;2023-06-26T04:46:28;13.0;;;4.91;;
61675;SDS011;47574;52.090;5.244;2023-06-26T04:48:04;10.3;;;4.5;;
61675;SDS011;47574;52.090;5.244;2023-06-26T04:49:41;13.5;;;4.7;;
61675;SDS011;47574;52.090;5.244;2023-06-26T04:51:18;11.3;;;4.41;;
61675;SDS011;47574;52.090;5.244;2023-06-26T04:54:31;12.7;;;4.3;;
61675;SDS011;47574;52.090;5.244;2023-06-26T04:56:07;10.21;;;4.5;;
61675;SDS011;47574;52.090;5.244;2023-06-26T04:57:43;9.81;;;4.2;;
61675;SDS011;47574;52.090;5.244;2023-06-26T05:00:56;11.0;;;3.9;;
61675;SDS011;47574;52.090;5.244;2023-06-26T05:02:33;7.2;;;4.0;;
61675;SDS011;47574;52.090;5.244;2023-06-26T05:04:10;9.0;;;4.0;;
61675;SDS011;47574;52.090;5.244;2023-06-26T05:07:25;9.21;;;4.1;;
61675;SDS011;47574;52.090;5.244;2023-06-26T05:09:02;10.21;;;4.3;;
61675;SDS011;47574;52.090;5.244;2023-06-26T05:10:39;8.1;;;4.1;;
61675;SDS011;47574;52.090;5.244;2023-06-26T05:12:15;7.3;;;3.7;;
61675;SDS011;47574;52.090;5.244;2023-06-26T05:15:28;9.31;;;4.0;;
61675;SDS011;47574;52.090;5.244;2023-06-26T05:17:06;5.8;;;3.4;;
61675;SDS011;47574;52.090;5.244;2023-06-26T05:18:43;8.0;;;3.8;;
61675;SDS011;47574;52.090;5.244;2023-06-26T05:21:57;8.1;;;4.0;;
61675;SDS011;47574;52.090;5.244;2023-06-26T05:23:36;7.5;;;3.8;;
61675;SDS011;47574;52.090;5.244;2023-06-26T05:25:13;6.6;;;3.3;;
61675;SDS011;47574;52.090;5.244;2023-06-26T05:26:51;5.7;;;3.3;;
61675;SDS011;47574;52.090;5.244;2023-06-26T05:30:07;9.21;;;3.4;;
61675;SDS011;47574;52.090;5.244;2023-06-26T05:31:44;5.6;;;3.3;;
61675;SDS011;47574;52.090;5.244;2023-06-26T05:33:25;6.0;;;3.4;;
61675;SDS011;47574;52.090;5.244;2023-06-26T05:36:41;7.4;;;3.3;;
61675;SDS011;47574;52.090;5.244;2023-06-26T05:38:18;4.7;;;2.9;;
61675;SDS011;47574;52.090;5.244;2023-06-26T05:39:56;5.4;;;3.0;;
61675;SDS011;47574;52.090;5.244;2023-06-26T05:41:33;6.5;;;2.9;;
61675;SDS011;47574;52.090;5.244;2023-06-26T05:44:48;7.5;;;3.1;;
61675;SDS011;47574;52.090;5.244;2023-06-26T05:46:24;5.7;;;3.0;;
61675;SDS011;47574;52.090;5.244;2023-06-26T05:48:01;5.5;;;2.9;;
61675;SDS011;47574;52.090;5.244;2023-06-26T05:51:15;5.11;;;2.8;;
61675;SDS011;47574;52.090;5.244;2023-06-26T05:52:53;5.5;;;2.8;;
61675;SDS011;47574;52.090;5.244;2023-06-26T05:54:31;4.2;;;2.8;;
61675;SDS011;47574;52.090;5.244;2023-06-26T05:56:08;4.1;;;2.5;;
61675;SDS011;47574;52.090;5.244;2023-06-26T05:59:23;3.2;;;2.5;;
61675;SDS011;47574;52.090;5.244;2023-06-26T06:01:00;7.4;;;3.2;;
61675;SDS011;47574;52.090;5.244;2023-06-26T06:02:37;4.41;;;2.8;;
61675;SDS011;47574;52.090;5.244;2023-06-26T06:05:51;5.6;;;2.8;;
61675;SDS011;47574;52.090;5.244;2023-06-26T06:07:27;5.6;;;2.9;;
61675;SDS011;47574;52.090;5.244;2023-06-26T06:09:03;5.8;;;2.9;;
61675;SDS011;47574;52.090;5.244;2023-06-26T06:12:17;5.7;;;2.9;;
61675;SDS011;47574;52.090;5.244;2023-06-26T06:13:54;4.61;;;2.7;;
61675;SDS011;47574;52.090;5.244;2023-06-26T06:15:30;6.6;;;2.6;;
61675;SDS011;47574;52.090;5.244;2023-06-26T06:17:07;6.4;;;3.2;;
61675;SDS011;47574;52.090;5.244;2023-06-26T06:20:22;6.0;;;3.1;;
61675;SDS011;47574;52.090;5.244;2023-06-26T06:21:59;7.5;;;3.4;;
61675;SDS011;47574;52.090;5.244;2023-06-26T06:23:35;6.1;;;3.2;;
61675;SDS011;47574;52.090;5.244;2023-06-26T06:26:50;4.61;;;2.6;;
61675;SDS011;47574;52.090;5.244;2023-06-26T06:28:27;4.8;;;2.7;;
61675;SDS011;47574;52.090;5.244;2023-06-26T06:30:04;5.11;;;2.5;;
61675;SDS011;47574;52.090;5.244;2023-06-26T06:31:41;5.4;;;2.21;;
61675;SDS011;47574;52.090;5.244;2023-06-26T06:34:55;5.11;;;2.5;;
61675;SDS011;47574;52.090;5.244;2023-06-26T06:36:33;7.0;;;2.6;;
61675;SDS011;47574;52.090;5.244;2023-06-26T06:38:10;3.7;;;2.31;;
61675;SDS011;47574;52.090;5.244;2023-06-26T06:41:23;5.5;;;2.8;;
61675;SDS011;47574;52.090;5.244;2023-06-26T06:43:00;4.0;;;2.4;;
61675;SDS011;47574;52.090;5.244;2023-06-26T06:44:37;5.11;;;2.4;;
61675;SDS011;47574;52.090;5.244;2023-06-26T06:47:50;8.0;;;2.9;;
61675;SDS011;47574;52.090;5.244;2023-06-26T06:49:27;3.8;;;2.5;;
61675;SDS011;47574;52.090;5.244;2023-06-26T06:51:04;4.8;;;2.5;;
61675;SDS011;47574;52.090;5.244;2023-06-26T06:52:42;4.8;;;3.0;;
61675;SDS011;47574;52.090;5.244;2023-06-26T06:55:56;6.5;;;2.7;;
61675;SDS011;47574;52.090;5.244;2023-06-26T06:57:33;4.91;;;2.8;;
61675;SDS011;47574;52.090;5.244;2023-06-26T06:59:12;4.0;;;2.6;;
61675;SDS011;47574;52.090;5.244;2023-06-26T07:02:26;4.5;;;2.9;;
61675;SDS011;47574;52.090;5.244;2023-06-26T07:04:03;8.5;;;3.4;;
61675;SDS011;47574;52.090;5.244;2023-06-26T07:05:41;6.6;;;3.0;;
61675;SDS011;47574;52.090;5.244;2023-06-26T07:07:18;4.41;;;2.5;;
61675;SDS011;47574;52.090;5.244;2023-06-26T07:10:30;5.0;;;3.0;;
61675;SDS011;47574;52.090;5.244;2023-06-26T07:12:08;5.6;;;3.3;;
61675;SDS011;47574;52.090;5.244;2023-06-26T07:13:45;5.8;;;3.1;;
61675;SDS011;47574;52.090;5.244;2023-06-26T07:16:59;5.3;;;2.9;;
61675;SDS011;47574;52.090;5.244;2023-06-26T07:18:37;7.3;;;2.6;;
61675;SDS011;47574;52.090;5.244;2023-06-26T07:20:13;7.2;;;3.3;;
61675;SDS011;47574;52.090;5.244;2023-06-26T07:21:50;7.3;;;2.6;;
61675;SDS011;47574;52.090;5.244;2023-06-26T07:25:03;3.9;;;3.0;;
61675;SDS011;47574;52.090;5.244;2023-06-26T07:26:40;6.0;;;2.7;;
61675;SDS011;47574;52.090;5.244;2023-06-26T07:28:16;6.3;;;2.6;;
61675;SDS011;47574;52.090;5.244;2023-06-26T07:31:30;4.61;;;2.6;;
61675;SDS011;47574;52.090;5.244;2023-06-26T07:33:08;5.6;;;2.9;;
61675;SDS011;47574;52.090;5.244;2023-06-26T07:34:45;7.8;;;2.9;;
61675;SDS011;47574;52.090;5.244;2023-06-26T07:37:59;5.3;;;2.7;;
61675;SDS011;47574;52.090;5.244;2023-06-26T07:39:36;8.81;;;2.5;;
61675;SDS011;47574;52.090;5.244;2023-06-26T07:41:13;3.8;;;2.4;;
61675;SDS011;47574;52.090;5.244;2023-06-26T07:42:50;8.5;;;3.2;;
61675;SDS011;47574;52.090;5.244;2023-06-26T07:46:04;5.7;;;2.4;;
61675;SDS011;47574;52.090;5.244;2023-06-26T07:47:41;4.91;;;2.4;;
61675;SDS011;47574;52.090;5.244;2023-06-26T07:49:18;7.4;;;2.4;;
61675;SDS011;47574;52.090;5.244;2023-06-26T07:52:32;7.1;;;2.5;;
61675;SDS011;47574;52.090;5.244;2023-06-26T07:54:10;7.0;;;2.6;;
61675;SDS011;47574;52.090;5.244;2023-06-26T07:55:47;5.4;;;2.5;;
61675;SDS011;47574;52.090;5.244;2023-06-26T07:57:24;7.3;;;2.8;;
61675;SDS011;47574;52.090;5.244;2023-06-26T08:00:40;6.6;;;2.7;;
61675;SDS011;47574;52.090;5.244;2023-06-26T08:02:16;4.91;;;2.31;;
61675;SDS011;47574;52.090;5.244;2023-06-26T08:03:53;7.1;;;2.8;;
61675;SDS011;47574;52.090;5.244;2023-06-26T08:07:06;9.31;;;2.8;;
61675;SDS011;47574;52.090;5.244;2023-06-26T08:08:43;4.91;;;2.31;;
61675;SDS011;47574;52.090;5.244;2023-06-26T08:10:20;8.81;;;2.8;;
61675;SDS011;47574;52.090;5.244;2023-06-26T08:13:35;8.4;;;2.8;;
61675;SDS011;47574;52.090;5.244;2023-06-26T08:15:12;7.1;;;2.5;;
61675;SDS011;47574;52.090;5.244;2023-06-26T08:16:48;5.2;;;2.1;;
61675;SDS011;47574;52.090;5.244;2023-06-26T08:18:25;7.0;;;2.7;;
61675;SDS011;47574;52.090;5.244;2023-06-26T08:21:40;5.5;;;2.1;;
61675;SDS011;47574;52.090;5.244;2023-06-26T08:23:17;6.3;;;2.31;;
61675;SDS011;47574;52.090;5.244;2023-06-26T08:24:53;4.7;;;2.1;;
61675;SDS011;47574;52.090;5.244;2023-06-26T08:28:07;4.5;;;2.0;;
61675;SDS011;47574;52.090;5.244;2023-06-26T08:29:44;10.0;;;2.1;;
61675;SDS011;47574;52.090;5.244;2023-06-26T08:31:21;10.8;;;1.9;;
61675;SDS011;47574;52.090;5.244;2023-06-26T08:32:58;5.6;;;1.9;;
61675;SDS011;47574;52.090;5.244;2023-06-26T08:36:12;10.3;;;1.9;;
61675;SDS011;47574;52.090;5.244;2023-06-26T08:37:49;5.9;;;1.8;;
61675;SDS011;47574;52.090;5.244;2023-06-26T08:39:25;7.3;;;1.9;;
61675;SDS011;47574;52.090;5.244;2023-06-26T08:42:39;5.6;;;1.6;;
61675;SDS011;47574;52.090;5.244;2023-06-26T08:44:16;6.4;;;1.8;;
61675;SDS011;47574;52.090;5.244;2023-06-26T08:45:53;6.6;;;1.8;;
61675;SDS011;47574;52.090;5.244;2023-06-26T08:49:13;5.6;;;1.6;;
61675;SDS011;47574;52.090;5.244;2023-06-26T08:50:56;4.41;;;1.6;;
61675;SDS011;47574;52.090;5.244;2023-06-26T08:52:36;6.8;;;1.8;;
61675;SDS011;47574;52.090;5.244;2023-06-26T08:54:20;6.0;;;1.8;;
61675;SDS011;47574;52.090;5.244;2023-06-26T08:56:03;6.0;;;1.8;;
61675;SDS011;47574;52.090;5.244;2023-06-26T08:59:20;5.3;;;1.5;;
61675;SDS011;47574;52.090;5.244;2023-06-26T09:00:57;3.6;;;1.6;;
61675;SDS011;47574;52.090;5.244;2023-06-26T09:02:36;6.1;;;1.8;;
61675;SDS011;47574;52.090;5.244;2023-06-26T09:05:51;3.4;;;1.5;;
61675;SDS011;47574;52.090;5.244;2023-06-26T09:07:28;7.1;;;2.0;;
61675;SDS011;47574;52.090;5.244;2023-06-26T09:09:05;3.5;;;1.7;;
61675;SDS011;47574;52.090;5.244;2023-06-26T09:10:43;2.8;;;1.5;;
61675;SDS011;47574;52.090;5.244;2023-06-26T09:13:58;3.3;;;1.8;;
61675;SDS011;47574;52.090;5.244;2023-06-26T09:15:38;6.3;;;2.0;;
61675;SDS011;47574;52.090;5.244;2023-06-26T09:17:17;5.6;;;1.5;;
61675;SDS011;47574;52.090;5.244;2023-06-26T09:20:31;7.6;;;1.8;;
61675;SDS011;47574;52.090;5.244;2023-06-26T09:22:10;5.4;;;1.7;;
61675;SDS011;47574;52.090;5.244;2023-06-26T09:23:49;6.2;;;1.7;;
61675;SDS011;47574;52.090;5.244;2023-06-26T09:25:28;6.3;;;1.7;;
61675;SDS011;47574;52.090;5.244;2023-06-26T09:28:41;4.8;;;2.1;;
61675;SDS011;47574;52.090;5.244;2023-06-26T09:30:19;3.8;;;1.8;;
61675;SDS011;47574;52.090;5.244;2023-06-26T09:31:56;3.8;;;1.8;;
61675;SDS011;47574;52.090;5.244;2023-06-26T09:35:14;4.5;;;2.0;;
61675;SDS011;47574;52.090;5.244;2023-06-26T09:36:52;4.2;;;1.7;;
61675;SDS011;47574;52.090;5.244;2023-06-26T09:38:29;6.2;;;1.7;;
61675;SDS011;47574;52.090;5.244;2023-06-26T09:40:06;4.41;;;1.9;;
61675;SDS011;47574;52.090;5.244;2023-06-26T09:43:22;3.9;;;1.8;;
61675;SDS011;47574;52.090;5.244;2023-06-26T09:44:59;5.2;;;1.8;;
61675;SDS011;47574;52.090;5.244;2023-06-26T09:46:37;7.4;;;2.1;;
61675;SDS011;47574;52.090;5.244;2023-06-26T09:49:51;3.7;;;1.8;;
61675;SDS011;47574;52.090;5.244;2023-06-26T09:51:29;6.8;;;1.5;;
61675;SDS011;47574;52.090;5.244;2023-06-26T09:53:07;5.2;;;1.7;;
61675;SDS011;47574;52.090;5.244;2023-06-26T09:54:44;3.0;;;1.3;;
61675;SDS011;47574;52.090;5.244;2023-06-26T09:57:59;3.2;;;1.4;;
61675;SDS011;47574;52.090;5.244;2023-06-26T09:59:39;2.7;;;1.5;;
61675;SDS011;47574;52.090;5.244;2023-06-26T10:01:17;4.1;;;1.5;;
61675;SDS011;47574;52.090;5.244;2023-06-26T10:04:32;5.5;;;1.5;;
61675;SDS011;47574;52.090;5.244;2023-06-26T10:06:10;2.4;;;1.11;;
61675;SDS011;47574;52.090;5.244;2023-06-26T10:07:47;3.0;;;1.5;;
61675;SDS011;47574;52.090;5.244;2023-06-26T10:09:25;5.2;;;1.5;;
61675;SDS011;47574;52.090;5.244;2023-06-26T10:12:40;4.8;;;1.3;;
61675;SDS011;47574;52.090;5.244;2023-06-26T10:14:21;4.41;;;1.5;;
61675;SDS011;47574;52.090;5.244;2023-06-26T10:16:03;4.8;;;1.4;;
61675;SDS011;47574;52.090;5.244;2023-06-26T10:17:43;2.7;;;1.2;;
61675;SDS011;47574;52.090;5.244;2023-06-26T10:21:00;4.91;;;1.4;;
61675;SDS011;47574;52.090;5.244;2023-06-26T10:22:40;4.8;;;1.4;;
61675;SDS011;47574;52.090;5.244;2023-06-26T10:24:20;2.9;;;1.4;;
61675;SDS011;47574;52.090;5.244;2023-06-26T10:25:58;3.9;;;1.11;;
61675;SDS011;47574;52.090;5.244;2023-06-26T10:29:19;4.41;;;1.2;;
61675;SDS011;47574;52.090;5.244;2023-06-26T10:30:58;3.4;;;1.3;;
61675;SDS011;47574;52.090;5.244;2023-06-26T10:32:38;4.8;;;1.3;;
61675;SDS011;47574;52.090;5.244;2023-06-26T10:35:54;5.2;;;1.5;;
61675;SDS011;47574;52.090;5.244;2023-06-26T10:37:50;4.5;;;1.6;;
61675;SDS011;47574;52.090;5.244;2023-06-26T10:39:27;6.3;;;1.6;;
61675;SDS011;47574;52.090;5.244;2023-06-26T10:41:22;4.41;;;1.3;;
61675;SDS011;47574;52.090;5.244;2023-06-26T10:43:08;3.7;;;1.4;;
61675;SDS011;47574;52.090;5.244;2023-06-26T10:44:47;4.2;;;1.3;;
61675;SDS011;47574;52.090;5.244;2023-06-26T10:48:02;4.7;;;1.2;;
61675;SDS011;47574;52.090;5.244;2023-06-26T10:49:40;3.5;;;1.3;;
61675;SDS011;47574;52.090;5.244;2023-06-26T10:51:23;4.61;;;1.3;;
61675;SDS011;47574;52.090;5.244;2023-06-26T10:55:00;4.3;;;1.4;;
61675;SDS011;47574;52.090;5.244;2023-06-26T10:56:41;3.8;;;1.5;;
61675;SDS011;47574;52.090;5.244;2023-06-26T10:58:41;6.0;;;1.2;;
61675;SDS011;47574;52.090;5.244;2023-06-26T11:00:19;5.2;;;1.4;;
61675;SDS011;47574;52.090;5.244;2023-06-26T11:01:58;3.4;;;1.4;;
61675;SDS011;47574;52.090;5.244;2023-06-26T11:03:36;3.2;;;1.2;;
61675;SDS011;47574;52.090;5.244;2023-06-26T11:07:14;3.4;;;1.2;;
61675;SDS011;47574;52.090;5.244;2023-06-26T11:09:00;2.21;;;1.4;;
61675;SDS011;47574;52.090;5.244;2023-06-26T11:10:47;4.1;;;1.4;;
61675;SDS011;47574;52.090;5.244;2023-06-26T11:12:37;4.8;;;1.6;;
61675;SDS011;47574;52.090;5.244;2023-06-26T11:14:14;4.3;;;1.5;;
61675;SDS011;47574;52.090;5.244;2023-06-26T11:17:28;3.7;;;1.2;;
61675;SDS011;47574;52.090;5.244;2023-06-26T11:19:05;3.6;;;1.2;;
61675;SDS011;47574;52.090;5.244;2023-06-26T11:20:42;6.4;;;1.5;;
61675;SDS011;47574;52.090;5.244;2023-06-26T11:23:57;3.6;;;1.2;;
61675;SDS011;47574;52.090;5.244;2023-06-26T11:25:35;4.3;;;1.3;;
61675;SDS011;47574;52.090;5.244;2023-06-26T11:27:13;2.7;;;1.11;;
61675;SDS011;47574;52.090;5.244;2023-06-26T11:28:50;3.8;;;1.2;;
61675;SDS011;47574;52.090;5.244;2023-06-26T11:32:06;3.6;;;1.4;;
61675;SDS011;47574;52.090;5.244;2023-06-26T11:33:45;5.8;;;1.3;;
61675;SDS011;47574;52.090;5.244;2023-06-26T11:35:22;4.41;;;1.3;;
61675;SDS011;47574;52.090;5.244;2023-06-26T11:38:37;4.7;;;1.3;;
61675;SDS011;47574;52.090;5.244;2023-06-26T11:40:17;3.0;;;1.11;;
61675;SDS011;47574;52.090;5.244;2023-06-26T11:41:53;2.1;;;1.2;;
61675;SDS011;47574;52.090;5.244;2023-06-26T11:43:30;2.0;;;1.11;;
61675;SDS011;47574;52.090;5.244;2023-06-26T11:46:44;4.2;;;1.11;;
61675;SDS011;47574;52.090;5.244;2023-06-26T11:48:21;5.2;;;1.0;;
61675;SDS011;47574;52.090;5.244;2023-06-26T11:50:01;2.8;;;1.2;;
61675;SDS011;47574;52.090;5.244;2023-06-26T11:53:18;4.2;;;1.11;;
61675;SDS011;47574;52.090;5.244;2023-06-26T11:54:55;5.7;;;1.11;;
61675;SDS011;47574;52.090;5.244;2023-06-26T11:56:32;4.8;;;1.0;;
61675;SDS011;47574;52.090;5.244;2023-06-26T11:58:09;2.5;;;1.0;;
61675;SDS011;47574;52.090;5.244;2023-06-26T12:01:26;2.5;;;0.9;;
61675;SDS011;47574;52.090;5.244;2023-06-26T12:03:07;4.1;;;1.0;;
61675;SDS011;47574;52.090;5.244;2023-06-26T12:04:44;4.41;;;0.9;;
61675;SDS011;47574;52.090;5.244;2023-06-26T12:06:21;2.31;;;0.8;;
61675;SDS011;47574;52.090;5.244;2023-06-26T12:09:38;3.8;;;1.11;;
61675;SDS011;47574;52.090;5.244;2023-06-26T12:11:15;2.31;;;0.8;;
61675;SDS011;47574;52.090;5.244;2023-06-26T12:12:53;4.5;;;1.11;;
61675;SDS011;47574;52.090;5.244;2023-06-26T12:16:08;1.7;;;0.8;;
61675;SDS011;47574;52.090;5.244;2023-06-26T12:17:45;2.0;;;0.8;;
61675;SDS011;47574;52.090;5.244;2023-06-26T12:19:24;3.6;;;1.11;;
61675;SDS011;47574;52.090;5.244;2023-06-26T12:21:02;2.31;;;0.9;;
61675;SDS011;47574;52.090;5.244;2023-06-26T12:24:15;1.9;;;0.8;;
61675;SDS011;47574;52.090;5.244;2023-06-26T12:25:54;2.1;;;1.0;;
61675;SDS011;47574;52.090;5.244;2023-06-26T12:27:31;4.7;;;1.0;;
61675;SDS011;47574;52.090;5.244;2023-06-26T12:30:49;1.7;;;0.8;;
61675;SDS011;47574;52.090;5.244;2023-06-26T12:32:50;8.4;;;1.0;;
61675;SDS011;47574;52.090;5.244;2023-06-26T12:34:28;2.5;;;0.9;;
61675;SDS011;47574;52.090;5.244;2023-06-26T12:36:09;5.6;;;1.11;;
61675;SDS011;47574;52.090;5.244;2023-06-26T12:37:46;3.6;;;1.11;;
61675;SDS011;47574;52.090;5.244;2023-06-26T12:41:01;2.0;;;0.9;;
61675;SDS011;47574;52.090;5.244;2023-06-26T12:42:38;2.5;;;0.8;;
61675;SDS011;47574;52.090;5.244;2023-06-26T12:44:17;1.7;;;0.8;;
61675;SDS011;47574;52.090;5.244;2023-06-26T12:49:08;1.7;;;0.9;;
61675;SDS011;47574;52.090;5.244;2023-06-26T12:50:48;5.11;;;0.9;;
61675;SDS011;47574;52.090;5.244;2023-06-26T12:52:25;2.7;;;0.9;;
61675;SDS011;47574;52.090;5.244;2023-06-26T12:55:39;2.7;;;1.0;;